Time;durP1;ratioP1;P1;durP2;ratioP2;P2;SDS_P1;SDS_P2;PMS_P1;PMS_P2;Temp;Humidity;BMP_temperature;BMP_pressure;BME280_temperature;BME280_humidity;BME280_pressure;Samples;Min_cycle;Max_cycle;Signal;HPM_P1;HPM_P2
2023/10/14 00:01:27;;;;;;;18.23;5.60;;;;;;;15.10;100.00;99410.88;5049964;28;20447;-66
2023/10/14 00:03:56;;;;;;;11.68;4.68;;;;;;;15.10;100.00;99420.84;5049390;28;20041;-66
2023/10/14 00:06:23;;;;;;;22.08;5.40;;;;;;;14.98;100.00;99412.63;5049789;28;20060;-66
2023/10/14 00:08:57;;;;;;;18.33;6.00;;;;;;;14.95;100.00;99400.41;5050062;28;20099;-66
2023/10/14 00:12:03;;;;;;;20.20;5.45;;;;;;;14.91;100.00;99387.56;5050121;28;20048;-67
2023/10/14 00:14:19;;;;;;;14.80;5.85;;;;;;;14.70;100.00;99383.34;5048761;28;20048;-67
2023/10/14 00:16:51;;;;;;;16.10;5.22;;;;;;;14.60;100.00;99391.09;5050452;28;20044;-66
2023/10/14 00:19:20;;;;;;;12.32;5.65;;;;;;;14.39;100.00;99368.84;5048923;28;20048;-66
2023/10/14 00:21:49;;;;;;;18.95;6.22;;;;;;;13.49;100.00;99236.84;5049912;28;20052;-66
2023/10/14 00:24:26;;;;;;;22.65;5.85;;;;;;;9.87;100.00;98672.34;5050187;28;20052;-67
2023/10/14 00:26:54;;;;;;;15.93;5.43;;;;;;;12.36;100.00;99075.81;5050032;28;20514;-69
2023/10/14 06:56:48;;;;;;;3.22;0.88;;;;;;;-149.70;100.00;75853.09;6022691;23;20108;31
2023/10/14 06:59:16;;;;;;;3.67;1.15;;;;;;;-149.70;100.00;75881.56;4931813;29;20036;-66
2023/10/14 07:01:43;;;;;;;4.88;0.98;;;;;;;-149.70;100.00;75873.44;4932336;29;20047;-66
2023/10/14 07:04:12;;;;;;;5.22;0.80;;;;;;;-149.70;100.00;75893.75;4932411;29;20055;-65
2023/10/14 07:06:39;;;;;;;2.88;1.20;;;;;;;-149.70;100.00;75889.69;4932341;29;20043;-66
2023/10/14 07:09:16;;;;;;;5.72;1.45;;;;;;;-149.70;100.00;75893.75;4932306;29;20055;-67
2023/10/14 07:11:45;;;;;;;2.17;0.77;;;;;;;-149.70;100.00;75908.00;4932325;29;20054;-66
2023/10/14 07:14:11;;;;;;;2.38;1.42;;;;;;;-149.70;100.00;75881.56;4932409;29;20051;-65
2023/10/14 07:16:38;;;;;;;7.60;1.42;;;;;;;-149.70;100.00;75877.50;4932265;29;20047;-66
2023/10/14 07:19:05;;;;;;;5.00;1.13;;;;;;;-149.70;100.00;75865.28;4931484;29;20052;-67
2023/10/14 07:21:31;;;;;;;4.68;1.40;;;;;;;-149.70;100.00;75867.31;4932741;29;20047;-66
2023/10/14 07:24:05;;;;;;;3.17;0.95;;;;;;;-149.70;100.00;75879.53;4932574;29;20051;-66
2023/10/14 07:26:36;;;;;;;2.83;1.10;;;;;;;-149.70;100.00;75863.25;4932266;29;20063;-66
2023/10/14 07:29:05;;;;;;;4.60;1.13;;;;;;;-149.70;100.00;75889.69;4949077;28;20137;-66
2023/10/14 07:31:37;;;;;;;4.00;0.90;;;;;;;-149.70;100.00;75928.31;4970051;28;20578;-66
2023/10/14 07:34:08;;;;;;;8.82;1.52;;;;;;;-149.70;100.00;75920.19;4970278;28;20054;-65
2023/10/14 07:36:35;;;;;;;3.72;1.08;;;;;;;-149.70;100.00;75910.03;4970376;28;20074;-66
2023/10/14 07:41:52;;;;;;;3.83;1.20;;;;;;;-149.70;100.00;75940.53;4969957;28;20126;-66
2023/10/14 07:44:20;;;;;;;6.32;1.05;;;;;;;-149.70;100.00;75930.34;4969798;28;20066;-66
2023/10/14 07:46:46;;;;;;;6.10;1.20;;;;;;;-149.70;100.00;75914.09;4970032;28;20050;-65
2023/10/14 07:49:14;;;;;;;8.57;1.52;;;;;;;-149.70;100.00;75903.94;4970642;28;20096;-66
2023/10/14 07:51:42;;;;;;;7.25;1.50;;;;;;;-149.70;100.00;75881.56;4969115;28;20058;-66
2023/10/14 07:54:12;;;;;;;5.63;1.38;;;;;;;-149.70;100.00;75922.22;4969962;28;20043;-65
2023/10/14 07:56:42;;;;;;;8.13;1.42;;;;;;;-149.70;100.00;75940.53;4969650;28;20435;-67
2023/10/14 07:59:10;;;;;;;2.60;1.00;;;;;;;-149.70;100.00;75934.41;4968989;28;20146;-66
2023/10/14 08:01:38;;;;;;;12.05;1.80;;;;;;;-149.70;100.00;75881.56;4968989;28;20055;-66
2023/10/14 08:04:14;;;;;;;4.28;1.60;;;;;;;-149.70;100.00;75855.13;4970198;28;20050;-66
2023/10/14 08:06:43;;;;;;;5.07;1.38;;;;;;;-149.70;100.00;75783.97;4969639;28;20069;-65
2023/10/14 08:09:43;;;;;;;6.68;1.70;;;;;;;-149.70;100.00;75743.31;4970162;28;20047;-66
2023/10/14 08:12:02;;;;;;;10.95;1.80;;;;;;;-149.70;100.00;75682.31;4967319;28;20039;-66
2023/10/14 08:14:30;;;;;;;6.60;1.58;;;;;;;4.46;100.00;98436.53;4970675;28;20125;-65
2023/10/14 08:16:57;;;;;;;8.02;1.23;;;;;;;6.41;100.00;98805.63;4969525;28;20039;-65
2023/10/14 08:19:26;;;;;;;7.28;1.55;;;;;;;8.19;100.00;99042.34;4969153;28;20419;-65
2023/10/14 08:21:53;;;;;;;7.90;1.30;;;;;;;8.26;100.00;99057.47;4969789;28;20125;-66
2023/10/14 08:24:20;;;;;;;8.60;1.88;;;;;;;10.59;100.00;99346.38;4969546;28;20483;-65
2023/10/14 08:26:49;;;;;;;9.30;2.00;;;;;;;12.24;100.00;99595.59;4970329;28;20572;-66
2023/10/14 08:29:19;;;;;;;6.22;1.60;;;;;;;12.02;100.00;99624.44;4969715;28;20042;-66
2023/10/14 08:31:51;;;;;;;9.88;2.00;;;;;;;12.44;100.00;99634.19;4970444;28;20051;-66
2023/10/14 08:34:18;;;;;;;12.48;2.25;;;;;;;12.46;100.00;99648.28;4969923;28;20057;-65
2023/10/14 08:36:45;;;;;;;10.77;2.28;;;;;;;12.07;100.00;99670.34;4968696;28;20050;-66
2023/10/14 08:39:14;;;;;;;13.88;5.30;;;;;;;12.16;100.00;99674.56;4952219;28;20042;-66
2023/10/14 08:41:45;;;;;;;11.98;3.50;;;;;;;12.44;100.00;99676.41;4969902;28;20047;-66
2023/10/14 08:44:14;;;;;;;8.35;1.90;;;;;;;12.47;100.00;99676.00;4969359;28;20051;-65
2023/10/14 08:46:43;;;;;;;10.43;2.30;;;;;;;12.90;100.00;99691.97;4968774;28;20440;-66
2023/10/14 08:49:12;;;;;;;8.57;2.00;;;;;;;13.41;100.00;99708.53;4969182;28;20404;-66
2023/10/14 08:51:40;;;;;;;9.98;1.80;;;;;;;14.13;100.00;99725.84;4969777;28;20130;-66
2023/10/14 08:54:24;;;;;;;12.02;1.70;;;;;;;14.60;100.00;99747.38;4969557;28;20138;-65
2023/10/14 08:56:51;;;;;;;;;;;;;;;14.83;100.00;99741.56;4969974;28;20047;-66
2023/10/14 08:59:18;;;;;;;10.98;2.47;;;;;;;15.83;100.00;99747.34;4969440;28;19926;-66
2023/10/14 09:01:51;;;;;;;9.88;2.22;;;;;;;15.70;100.00;99749.06;4969122;28;20047;-65
2023/10/14 09:04:28;;;;;;;14.23;2.20;;;;;;;14.66;100.00;99758.16;4969847;28;20538;-66
2023/10/14 09:07:03;;;;;;;8.38;2.42;;;;;;;14.98;100.00;99766.44;4969382;28;20049;-66
2023/10/14 09:09:32;;;;;;;8.57;1.75;;;;;;;15.22;100.00;99781.97;4970350;28;20407;-66
2023/10/14 09:12:11;;;;;;;13.00;2.50;;;;;;;14.96;100.00;99787.44;4971570;28;20052;-66
2023/10/14 09:14:40;;;;;;;9.65;2.00;;;;;;;13.96;100.00;99787.44;4971278;28;20135;-66
2023/10/14 09:17:09;;;;;;;15.15;2.17;;;;;;;13.89;100.00;99791.19;4972804;28;20050;-66
2023/10/14 09:19:48;;;;;;;10.13;1.98;;;;;;;14.15;100.00;99791.22;4972529;28;20399;-66
2023/10/14 09:22:33;;;;;;;9.35;1.85;;;;;;;13.39;100.00;99809.44;4972949;28;20047;-66
2023/10/14 09:25:00;;;;;;;12.93;2.47;;;;;;;13.35;100.00;99809.84;4972876;28;20047;-66
2023/10/14 09:27:30;;;;;;;13.25;2.85;;;;;;;14.55;100.00;99807.41;4972611;28;20085;-65
2023/10/14 09:29:58;;;;;;;12.02;2.50;;;;;;;15.69;97.18;99822.31;4972261;28;20066;-66
2023/10/14 09:32:25;;;;;;;8.15;2.10;;;;;;;16.68;79.98;99812.72;4973333;28;20047;-65
2023/10/14 09:34:52;;;;;;;12.23;2.80;;;;;;;18.03;66.07;99828.84;4972961;28;20119;-66
2023/10/14 09:37:21;;;;;;;7.82;1.90;;;;;;;18.39;60.81;99821.63;4972180;28;20522;-66
2023/10/14 09:39:49;;;;;;;8.55;2.00;;;;;;;18.60;61.62;99830.28;4971867;28;20093;-66
2023/10/14 09:42:18;;;;;;;13.82;3.33;;;;;;;18.00;63.86;99826.59;4971788;28;20089;-66
2023/10/14 09:44:47;;;;;;;9.63;2.33;;;;;;;17.66;61.30;99844.38;4972125;28;20047;-66
2023/10/14 09:47:19;;;;;;;14.15;2.42;;;;;;;16.63;64.64;99840.44;4972149;28;20050;-65
2023/10/14 09:49:47;;;;;;;12.23;2.58;;;;;;;16.33;68.03;99844.81;4971583;28;20468;-65
2023/10/14 09:52:14;;;;;;;10.52;2.42;;;;;;;16.14;65.33;99852.84;4971994;28;20046;-65
2023/10/14 09:54:42;;;;;;;7.03;2.13;;;;;;;16.41;65.91;99847.25;4971707;28;20070;-66
2023/10/14 09:57:12;;;;;;;13.70;2.55;;;;;;;16.64;60.11;99860.22;4971510;28;20058;-65
2023/10/14 09:59:42;;;;;;;9.98;2.78;;;;;;;16.57;58.74;99854.03;4970773;28;20047;-64
2023/10/14 10:02:10;;;;;;;8.20;1.88;;;;;;;17.10;55.54;99857.09;4971752;28;20050;-65
2023/10/14 10:04:45;;;;;;;10.68;2.22;;;;;;;17.62;53.80;99859.47;4971816;28;20078;-65
2023/10/14 10:08:07;;;;;;;12.18;2.35;;;;;;;15.94;59.74;99868.38;4971011;28;20047;-65
2023/10/14 10:10:36;;;;;;;15.75;2.40;;;;;;;15.52;66.45;99870.59;4952141;28;20430;-66
2023/10/14 10:13:03;;;;;;;12.27;2.33;;;;;;;15.49;64.98;99881.84;4971857;28;20057;-65
2023/10/14 10:15:35;;;;;;;10.52;2.22;;;;;;;15.18;63.75;99879.84;4971741;28;20105;-65
2023/10/14 10:18:04;;;;;;;11.50;2.10;;;;;;;15.79;64.50;99874.06;4971563;28;20113;-65
2023/10/14 10:20:40;;;;;;;11.70;2.35;;;;;;;16.64;58.87;99884.59;4971582;28;20105;-65
2023/10/14 10:23:10;;;;;;;12.60;2.47;;;;;;;18.17;51.36;99866.66;4970110;28;20047;-65
2023/10/14 10:25:36;;;;;;;9.63;1.92;;;;;;;17.25;53.06;99877.56;4970636;28;20499;-66
2023/10/14 10:28:28;;;;;;;10.25;2.13;;;;;;;17.80;51.21;99872.16;4970540;28;20050;-67
2023/10/14 10:31:09;;;;;;;12.77;2.28;;;;;;;19.01;49.90;99873.69;4970821;28;20078;-66
2023/10/14 10:33:52;;;;;;;11.52;2.10;;;;;;;19.01;48.94;99881.84;4971382;28;20054;-65
2023/10/14 10:36:25;;;;;;;13.60;2.65;;;;;;;17.16;53.58;99881.63;4971191;28;20047;-65
2023/10/14 10:38:53;;;;;;;11.23;2.63;;;;;;;16.84;53.32;99890.66;4954175;28;20053;-64
2023/10/14 10:41:24;;;;;;;8.45;1.90;;;;;;;15.70;54.96;99897.81;4970923;28;20129;-65
2023/10/14 10:44:00;;;;;;;9.35;2.42;;;;;;;15.35;56.34;99899.13;4970866;28;20051;-65
2023/10/14 10:46:39;;;;;;;12.85;2.50;;;;;;;15.41;57.52;99907.22;4971091;28;20046;-65
2023/10/14 10:49:07;;;;;;;15.35;2.72;;;;;;;14.72;60.86;99913.94;4970173;28;20051;-66
2023/10/14 10:51:34;;;;;;;11.82;2.53;;;;;;;14.91;61.71;99916.84;4969923;28;20062;-65
2023/10/14 10:54:03;;;;;;;12.30;2.58;;;;;;;14.97;61.68;99922.25;4971695;28;20140;-65
2023/10/14 10:56:32;;;;;;;15.75;2.65;;;;;;;14.19;63.46;99919.25;4971227;28;20517;-65
2023/10/14 10:59:04;;;;;;;8.45;2.53;;;;;;;14.44;64.82;99915.97;4970873;28;20134;-65
2023/10/14 11:01:32;;;;;;;16.27;2.35;;;;;;;14.01;66.78;99927.91;4971181;28;20483;-66
2023/10/14 11:04:09;;;;;;;13.93;2.80;;;;;;;13.76;72.25;99919.50;4970873;28;20053;-65
2023/10/14 11:06:36;;;;;;;12.75;2.40;;;;;;;13.93;70.56;99932.63;4970615;28;20761;-65
2023/10/14 11:09:03;;;;;;;12.57;2.47;;;;;;;13.95;72.93;99928.72;4954554;28;20475;-65
2023/10/14 11:11:32;;;;;;;22.92;2.90;;;;;;;13.85;72.74;99935.53;4970876;28;20109;-64
2023/10/14 11:14:00;;;;;;;15.82;2.42;;;;;;;13.92;72.14;99944.47;4970913;28;20102;-65
2023/10/14 11:16:28;;;;;;;13.68;2.80;;;;;;;13.32;74.27;99934.16;4952990;28;20047;-65
2023/10/14 11:18:57;;;;;;;14.10;2.72;;;;;;;13.27;72.22;99936.63;4970539;28;20047;-65
2023/10/14 11:21:27;;;;;;;13.50;2.42;;;;;;;12.90;69.30;99934.25;4969784;28;20439;-65
2023/10/14 11:23:54;;;;;;;15.82;3.03;;;;;;;12.85;70.05;99938.38;4970022;28;20577;-65
2023/10/14 11:26:23;;;;;;;18.85;4.05;;;;;;;12.41;70.29;99954.69;4969751;28;20506;-65
2023/10/14 11:28:50;;;;;;;14.55;2.85;;;;;;;12.15;70.75;99955.25;4970417;28;20392;-64
2023/10/14 11:31:20;;;;;;;16.58;2.40;;;;;;;12.04;73.41;99947.66;4969860;28;20073;-65
2023/10/14 11:33:47;;;;;;;16.07;3.00;;;;;;;12.11;72.89;99949.41;4970292;28;20447;-65
2023/10/14 11:36:18;;;;;;;13.77;2.33;;;;;;;11.72;71.40;99962.34;4969780;28;20039;-65
2023/10/14 11:38:47;;;;;;;9.60;2.08;;;;;;;12.02;76.06;99955.91;4970175;28;20097;-64
2023/10/14 11:41:17;;;;;;;9.18;2.25;;;;;;;12.12;77.85;99958.31;4970017;28;20042;-65
2023/10/14 11:43:45;;;;;;;14.68;2.65;;;;;;;12.21;80.43;99959.88;4970289;28;20496;-64
2023/10/14 11:46:12;;;;;;;13.77;2.60;;;;;;;12.68;77.14;99957.66;4969904;28;20070;-65
2023/10/14 11:48:44;;;;;;;15.95;2.85;;;;;;;13.41;72.55;99952.88;4969723;28;20549;-65
2023/10/14 11:51:13;;;;;;;;;;;;;;;13.62;67.31;99950.09;4970197;28;20523;-64
2023/10/14 11:53:44;;;;;;;13.82;2.78;;;;;;;13.43;65.06;99956.22;4969885;28;19926;-65
2023/10/14 11:56:16;;;;;;;10.63;2.22;;;;;;;12.99;65.38;99970.78;4969721;28;20047;-65
2023/10/14 11:58:43;;;;;;;12.35;2.58;;;;;;;12.68;65.07;99985.38;4969113;28;20065;-64
2023/10/14 12:01:09;;;;;;;17.88;4.00;;;;;;;12.65;63.12;99981.22;4969559;28;20051;-65
2023/10/14 12:03:37;;;;;;;17.90;2.97;;;;;;;13.20;60.99;99968.06;4968432;28;20466;-64
2023/10/14 12:06:06;;;;;;;13.02;2.70;;;;;;;13.07;61.15;99973.34;4969136;28;20091;-64
2023/10/14 12:08:38;;;;;;;14.02;2.80;;;;;;;12.79;63.75;99981.38;4970445;28;20055;-64
2023/10/14 12:11:08;;;;;;;10.60;2.28;;;;;;;12.58;63.60;99985.69;4969996;28;20097;-65
2023/10/14 12:13:35;;;;;;;13.98;2.65;;;;;;;12.45;64.98;99992.78;4969538;28;20046;-65
2023/10/14 12:16:15;;;;;;;16.92;2.60;;;;;;;11.96;70.05;99990.75;4968927;28;20043;-64
2023/10/14 12:18:45;;;;;;;15.50;2.80;;;;;;;11.58;74.38;99991.66;4969604;28;20050;-64
2023/10/14 12:21:12;;;;;;;13.32;2.80;;;;;;;11.71;80.78;99999.13;4969712;28;20057;-64
2023/10/14 12:23:39;;;;;;;18.10;2.90;;;;;;;11.77;81.77;99998.38;4969505;28;20451;-65
2023/10/14 12:26:06;;;;;;;15.45;3.03;;;;;;;11.64;85.04;100003.53;4969512;28;20050;-65
2023/10/14 12:28:34;;;;;;;11.32;2.88;;;;;;;11.48;87.00;100009.91;4969482;28;20152;-65
2023/10/14 12:31:03;;;;;;;21.65;3.42;;;;;;;11.55;91.70;100016.25;4969861;28;20047;-65
2023/10/14 12:33:35;;;;;;;22.38;3.33;;;;;;;11.45;92.46;100023.72;4969737;28;20047;-65
2023/10/14 12:36:11;;;;;;;;;;;;;;;11.33;91.21;100017.13;4970541;28;20054;-65
2023/10/14 12:38:42;;;;;;;16.10;2.90;;;;;;;11.53;85.44;100017.44;4969580;28;20337;-65
2023/10/14 12:41:13;;;;;;;13.60;2.47;;;;;;;11.62;83.42;100019.00;4969551;28;20102;-65
2023/10/14 12:43:40;;;;;;;14.73;2.75;;;;;;;12.02;78.33;100020.41;4968738;28;20051;-65
2023/10/14 12:46:19;;;;;;;22.13;4.38;;;;;;;12.14;78.94;100026.16;4969587;28;20051;-65
2023/10/14 12:48:48;;;;;;;27.15;3.00;;;;;;;12.68;72.05;100031.13;4972915;28;20102;-65
2023/10/14 12:51:25;;;;;;;22.00;3.00;;;;;;;14.29;65.81;100029.47;4973482;28;20052;-65
2023/10/14 12:53:57;;;;;;;13.18;2.90;;;;;;;15.01;56.82;100022.59;4972785;28;20047;-65
2023/10/14 12:56:30;;;;;;;11.48;2.40;;;;;;;14.28;56.36;100031.31;4972634;28;20051;-64
2023/10/14 12:58:57;;;;;;;16.08;2.85;;;;;;;13.91;57.06;100024.53;4972717;28;20600;-65
2023/10/14 13:01:24;;;;;;;21.20;2.90;;;;;;;13.73;59.33;100029.56;4973164;28;20074;-65
2023/10/14 13:03:52;;;;;;;10.25;2.17;;;;;;;13.22;62.01;100029.81;4972680;28;20042;-65
2023/10/14 13:06:22;;;;;;;16.23;2.80;;;;;;;12.86;64.30;100038.81;4973157;28;20054;-65
2023/10/14 13:08:59;;;;;;;10.15;1.90;;;;;;;12.75;65.04;100028.53;4973220;28;20055;-65
2023/10/14 13:11:30;;;;;;;20.63;2.63;;;;;;;12.57;67.89;100020.88;4973000;28;20043;-65
2023/10/14 13:13:58;;;;;;;15.75;2.75;;;;;;;12.59;68.54;100021.50;4973105;28;20451;-64
2023/10/14 13:16:26;;;;;;;14.95;2.70;;;;;;;12.17;70.98;100031.16;4972600;28;20125;-65
2023/10/14 13:18:56;;;;;;;17.77;2.83;;;;;;;12.28;72.88;100032.53;4973087;28;20188;-64
2023/10/14 13:21:29;;;;;;;11.75;2.88;;;;;;;12.34;71.97;100027.22;4972789;28;20128;-65
2023/10/14 13:23:56;;;;;;;10.30;2.30;;;;;;;12.07;76.80;100036.84;4972677;28;20114;-65
2023/10/14 13:26:23;;;;;;;23.88;3.08;;;;;;;12.05;74.16;100029.97;4972523;28;20057;-65
2023/10/14 13:28:52;;;;;;;21.95;2.42;;;;;;;12.09;73.53;100034.78;4973076;28;20043;-65
2023/10/14 13:31:20;;;;;;;15.85;2.70;;;;;;;11.82;77.29;100036.28;4973092;28;20070;-65
2023/10/14 13:33:47;;;;;;;18.73;2.60;;;;;;;11.83;80.68;100040.66;4973236;28;20125;-65
2023/10/14 13:36:17;;;;;;;16.13;2.85;;;;;;;11.97;79.03;100038.13;4973113;28;20042;-65
2023/10/14 13:38:44;;;;;;;17.67;2.53;;;;;;;11.89;81.53;100039.88;4972955;28;20122;-65
2023/10/14 13:41:14;;;;;;;17.73;3.08;;;;;;;12.00;78.11;100051.19;4956101;28;20391;-65
2023/10/14 13:43:43;;;;;;;12.60;2.60;;;;;;;12.04;78.66;100050.66;4972231;28;20078;-64
2023/10/14 13:46:10;;;;;;;19.15;2.97;;;;;;;11.91;79.90;100042.41;4972937;28;20442;-64
2023/10/14 13:48:38;;;;;;;14.45;2.42;;;;;;;11.80;79.28;100050.94;4955442;28;20051;-65
2023/10/14 13:51:05;;;;;;;12.57;2.28;;;;;;;11.71;79.99;100057.41;4972908;28;20070;-65
2023/10/14 13:53:32;;;;;;;14.35;2.88;;;;;;;11.74;79.36;100063.25;4973091;28;20070;-65
2023/10/14 13:56:03;;;;;;;14.38;2.65;;;;;;;11.67;79.37;100056.94;4972784;28;20047;-65
2023/10/14 13:58:34;;;;;;;14.07;3.28;;;;;;;11.68;79.98;100056.75;4971651;28;20503;-65
2023/10/14 14:01:01;;;;;;;17.20;2.53;;;;;;;11.64;81.50;100055.41;4972897;28;20042;-65
2023/10/14 14:03:31;;;;;;;17.17;2.83;;;;;;;11.55;82.91;100048.47;4972204;28;20050;-65
2023/10/14 14:06:04;;;;;;;15.68;3.15;;;;;;;11.41;79.86;100052.81;4972782;28;20415;-65
2023/10/14 14:08:31;;;;;;;14.95;3.15;;;;;;;11.44;80.28;100056.94;4972917;28;20047;-65
2023/10/14 14:11:03;;;;;;;13.52;2.97;;;;;;;11.48;83.58;100052.03;4972339;28;20388;-65
2023/10/14 14:13:31;;;;;;;13.52;2.53;;;;;;;11.51;85.25;100059.75;4972564;28;20565;-65
2023/10/14 14:16:00;;;;;;;12.98;2.97;;;;;;;11.33;84.72;100066.28;4972047;28;20055;-65
2023/10/14 14:18:27;;;;;;;16.95;2.42;;;;;;;11.22;81.81;100064.03;4971710;28;20088;-65
2023/10/14 14:20:54;;;;;;;13.77;2.65;;;;;;;11.38;80.00;100069.28;4971818;28;20082;-65
2023/10/14 14:23:21;;;;;;;14.02;2.30;;;;;;;11.31;78.69;100068.34;4971332;28;20051;-65
2023/10/14 14:25:49;;;;;;;8.35;1.90;;;;;;;11.19;77.34;100064.38;4971780;28;20039;-65
2023/10/14 14:28:17;;;;;;;18.77;3.25;;;;;;;11.20;78.64;100064.19;4971516;28;20046;-65
2023/10/14 14:30:49;;;;;;;15.93;2.83;;;;;;;11.14;77.82;100066.78;4954013;28;20499;-65
2023/10/14 14:33:16;;;;;;;13.05;2.95;;;;;;;10.93;80.78;100059.41;4971888;28;20050;-64
2023/10/14 14:35:46;;;;;;;23.27;3.08;;;;;;;10.90;83.48;100071.31;4972071;28;20050;-64
2023/10/14 14:38:15;;;;;;;13.20;2.35;;;;;;;10.95;85.50;100068.09;4971765;28;20515;-65
2023/10/14 14:40:43;;;;;;;13.57;2.50;;;;;;;11.02;88.10;100073.59;4971622;28;20499;-65
2023/10/14 14:43:12;;;;;;;12.52;2.65;;;;;;;10.95;87.46;100074.28;4972103;28;20051;-65
2023/10/14 14:45:39;;;;;;;15.55;3.40;;;;;;;11.03;85.51;100102.09;4971156;28;20134;-64
2023/10/14 14:48:10;;;;;;;13.10;2.20;;;;;;;10.89;87.02;100104.50;4971954;28;20059;-65
2023/10/14 14:50:37;;;;;;;14.43;2.22;;;;;;;10.79;94.02;100103.94;4971121;28;20069;-65
2023/10/14 14:53:06;;;;;;;11.50;2.47;;;;;;;10.73;92.70;100112.69;4971672;28;20070;-65
2023/10/14 14:55:40;;;;;;;8.48;1.80;;;;;;;10.49;95.12;100105.56;4972246;28;20126;-65
2023/10/14 14:58:07;;;;;;;11.68;1.88;;;;;;;10.37;100.00;100107.78;4971244;28;20051;-66
2023/10/14 15:00:34;;;;;;;6.07;1.80;;;;;;;10.23;100.00;100106.66;4962117;28;20046;-65
2023/10/14 15:03:06;;;;;;;9.18;2.08;;;;;;;10.23;100.00;100101.28;4971337;28;20125;-65
2023/10/14 15:05:35;;;;;;;6.45;1.60;;;;;;;10.22;100.00;100098.81;4970952;28;20122;-65
2023/10/14 15:08:04;;;;;;;6.97;1.80;;;;;;;10.03;100.00;100111.59;4971859;28;20054;-65
2023/10/14 15:10:34;;;;;;;11.38;2.22;;;;;;;10.05;100.00;100103.38;4970712;28;20111;-65
2023/10/14 15:13:02;;;;;;;8.23;1.48;;;;;;;9.95;100.00;100102.72;4971497;28;20043;-65
2023/10/14 15:15:29;;;;;;;8.88;1.80;;;;;;;9.88;100.00;100105.25;4971640;28;20509;-66
2023/10/14 15:17:56;;;;;;;10.60;1.80;;;;;;;9.86;100.00;100117.16;4970574;28;20101;-65
2023/10/14 15:20:23;;;;;;;9.30;1.40;;;;;;;9.74;100.00;100116.66;4971308;28;20405;-65
2023/10/14 15:22:51;;;;;;;8.10;1.90;;;;;;;9.67;100.00;100118.34;4971086;28;20400;-66
2023/10/14 15:25:21;;;;;;;13.07;1.63;;;;;;;9.74;100.00;100122.03;4970672;28;20396;-65
2023/10/14 15:27:48;;;;;;;6.47;1.88;;;;;;;9.71;100.00;100128.53;4970517;28;20400;-66
2023/10/14 15:30:18;;;;;;;7.80;2.00;;;;;;;9.71;100.00;100128.53;4969686;28;20043;-65
2023/10/14 15:32:46;;;;;;;11.48;2.17;;;;;;;9.73;100.00;100120.38;4970132;28;20494;-65
2023/10/14 15:35:25;;;;;;;15.88;2.25;;;;;;;9.54;100.00;100127.75;4971055;28;20074;-66
2023/10/14 15:37:56;;;;;;;11.25;1.75;;;;;;;9.47;100.00;100121.41;4952598;28;20171;-65
2023/10/14 15:40:24;;;;;;;7.93;1.85;;;;;;;9.52;100.00;100121.72;4970478;28;20050;-65
2023/10/14 15:42:51;;;;;;;13.18;2.13;;;;;;;9.42;100.00;100123.72;4953428;28;20047;-64
2023/10/14 15:45:25;;;;;;;13.90;2.13;;;;;;;9.46;100.00;100124.22;4970004;28;20074;-65
2023/10/14 15:47:54;;;;;;;10.95;2.33;;;;;;;9.43;100.00;100120.03;4970236;28;20046;-65
2023/10/14 15:50:23;;;;;;;9.43;1.88;;;;;;;9.47;100.00;100124.06;4970844;28;20139;-66
2023/10/14 15:52:53;;;;;;;10.20;1.58;;;;;;;9.45;100.00;100136.78;4970731;28;20391;-65
2023/10/14 15:55:23;;;;;;;14.95;2.60;;;;;;;9.30;100.00;100130.41;4970116;28;20051;-65
2023/10/14 15:57:51;;;;;;;9.80;1.95;;;;;;;9.33;100.00;100132.75;4970125;28;20636;-65
2023/10/14 16:00:26;;;;;;;11.30;1.98;;;;;;;9.17;100.00;100138.91;4970667;28;20499;-65
2023/10/14 16:03:09;;;;;;;13.15;2.28;;;;;;;8.98;100.00;100147.22;4970332;28;20063;-65
2023/10/14 16:05:38;;;;;;;8.77;2.00;;;;;;;9.00;100.00;100151.41;4969019;28;20418;-65
2023/10/14 16:08:07;;;;;;;10.65;1.90;;;;;;;8.94;100.00;100161.94;4969599;28;20054;-65
2023/10/14 16:10:37;;;;;;;7.95;1.95;;;;;;;8.87;100.00;100172.44;4970950;28;20051;-65
2023/10/14 16:13:05;;;;;;;11.48;2.58;;;;;;;8.84;100.00;100183.47;4970815;28;20077;-65
2023/10/14 16:15:33;;;;;;;10.05;2.33;;;;;;;8.65;100.00;100183.75;4970865;28;20054;-66
2023/10/14 16:18:02;;;;;;;9.63;1.98;;;;;;;8.42;100.00;100183.47;4970462;28;20051;-66
2023/10/14 16:20:30;;;;;;;14.32;2.80;;;;;;;8.30;100.00;100185.56;4970356;28;20403;-66
2023/10/14 16:23:03;;;;;;;10.40;1.70;;;;;;;8.11;100.00;100163.41;4973070;28;20046;-66
2023/10/14 16:25:30;;;;;;;7.93;1.52;;;;;;;7.93;100.00;100153.78;4974691;28;20439;-65
2023/10/14 16:27:58;;;;;;;8.05;1.55;;;;;;;7.81;100.00;100174.50;4974683;28;20043;-65
2023/10/14 16:30:27;;;;;;;8.57;1.50;;;;;;;7.83;100.00;100184.06;4973996;28;20058;-65
2023/10/14 16:32:56;;;;;;;7.07;1.40;;;;;;;7.69;100.00;100181.94;4973623;28;20994;-65
2023/10/14 16:35:27;;;;;;;8.63;1.73;;;;;;;7.50;100.00;100174.97;4974391;28;20131;-65
2023/10/14 16:37:58;;;;;;;5.18;1.30;;;;;;;7.39;100.00;100180.50;4974509;28;20082;-65
2023/10/14 16:40:27;;;;;;;5.55;1.48;;;;;;;7.30;100.00;100166.28;4972738;28;20463;-65
2023/10/14 16:42:57;;;;;;;7.15;1.45;;;;;;;7.08;100.00;100151.53;4974184;28;21362;-65
2023/10/14 16:45:28;;;;;;;5.20;1.30;;;;;;;7.01;100.00;100137.13;4974448;28;21288;-64
2023/10/14 16:47:56;;;;;;;9.25;1.63;;;;;;;7.08;100.00;100135.53;4973987;28;20134;-65
2023/10/14 16:50:26;;;;;;;5.53;1.20;;;;;;;6.98;100.00;100126.78;4972743;28;20058;-65
2023/10/14 16:52:56;;;;;;;14.73;1.75;;;;;;;6.92;100.00;100125.56;4973823;28;20126;-65
2023/10/14 16:55:24;;;;;;;5.72;1.48;;;;;;;7.02;100.00;100125.50;4973597;28;20074;-66
2023/10/14 16:57:51;;;;;;;4.40;1.30;;;;;;;6.93;100.00;100132.56;4972995;28;20106;-64
2023/10/14 17:00:22;;;;;;;4.68;1.10;;;;;;;6.94;100.00;100133.38;4973382;28;20495;-66
2023/10/14 17:02:54;;;;;;;8.57;1.55;;;;;;;7.00;100.00;100131.97;4972210;28;20046;-65
2023/10/14 17:05:22;;;;;;;8.32;1.65;;;;;;;6.96;100.00;100142.09;4972702;28;20138;-64
2023/10/14 17:07:51;;;;;;;7.85;2.13;;;;;;;7.09;100.00;100141.72;4973231;28;20418;-66
2023/10/14 17:10:18;;;;;;;6.45;1.63;;;;;;;7.04;100.00;100134.16;4956304;28;20042;-66
2023/10/14 17:12:47;;;;;;;5.82;1.42;;;;;;;6.95;100.00;100140.41;4973308;28;20043;-66
2023/10/14 17:15:24;;;;;;;7.25;1.23;;;;;;;6.85;100.00;100147.66;4972696;28;20125;-66
2023/10/14 17:17:52;;;;;;;4.43;1.45;;;;;;;6.87;100.00;100156.31;4973232;28;20073;-65
2023/10/14 17:20:21;;;;;;;9.50;1.75;;;;;;;6.96;100.00;100158.09;4973532;28;20070;-65
2023/10/14 17:22:55;;;;;;;6.55;1.05;;;;;;;7.05;100.00;100151.00;4973699;28;20400;-65
2023/10/14 17:25:26;;;;;;;22.63;1.80;;;;;;;6.97;100.00;100157.09;4972838;28;20110;-66
2023/10/14 17:27:53;;;;;;;;;;;;;;;6.88;100.00;100152.69;4972875;28;20053;-66
2023/10/14 17:30:27;;;;;;;21.55;2.45;;;;;;;6.83;100.00;100153.09;4972626;28;19921;-65
2023/10/14 17:32:55;;;;;;;17.38;2.42;;;;;;;6.88;100.00;100155.34;4972204;28;20340;-65
2023/10/14 17:35:25;;;;;;;11.27;2.00;;;;;;;6.84;100.00;100159.28;4972950;28;20772;-65
2023/10/14 17:38:00;;;;;;;8.88;1.40;;;;;;;6.64;100.00;100158.56;4972216;28;20047;-65
2023/10/14 17:40:28;;;;;;;9.43;1.83;;;;;;;6.67;100.00;100159.13;4972323;28;20051;-65
2023/10/14 17:43:03;;;;;;;6.80;1.50;;;;;;;6.60;100.00;100158.03;4972629;28;20070;-65
2023/10/14 17:45:32;;;;;;;6.47;1.95;;;;;;;6.56;100.00;100163.78;4972519;28;20042;-65
2023/10/14 17:48:00;;;;;;;9.32;2.40;;;;;;;6.56;100.00;100163.78;4972063;28;20487;-66
2023/10/14 17:50:27;;;;;;;8.10;2.10;;;;;;;6.55;100.00;100173.59;4971519;28;20495;-65
2023/10/14 17:52:57;;;;;;;6.57;1.65;;;;;;;6.51;100.00;100180.22;4971798;28;20209;-66
2023/10/14 17:55:25;;;;;;;4.28;1.58;;;;;;;6.50;100.00;100175.06;4972650;28;20419;-66
2023/10/14 17:57:53;;;;;;;10.20;2.53;;;;;;;6.45;100.00;100164.81;4972842;28;20035;-66
2023/10/14 18:00:26;;;;;;;7.80;2.22;;;;;;;6.41;100.00;100164.28;4972721;28;20070;-66
2023/10/14 18:03:13;;;;;;;7.82;2.03;;;;;;;6.44;100.00;100157.81;4971909;28;20047;-66
2023/10/14 18:05:47;;;;;;;9.63;2.22;;;;;;;6.47;100.00;100162.84;4972445;28;20055;-65